Time;durP1;ratioP1;P1;durP2;ratioP2;P2;SDS_P1;SDS_P2;PMS_P1;PMS_P2;Temp;Humidity;BMP_temperature;BMP_pressure;BME280_temperature;BME280_humidity;BME280_pressure;Samples;Min_cycle;Max_cycle;Signal;HPM_P1;HPM_P2
2022/06/18 00:02:15;;;;;;;7.25;4.00;;;19.50;90.80;;;;;;4980629;28;20141;-74
2022/06/18 00:04:43;;;;;;;6.78;3.67;;;19.60;90.80;;;;;;4984082;28;20090;-74
2022/06/18 00:07:13;;;;;;;6.80;3.72;;;19.50;90.70;;;;;;4989475;28;20031;-74
2022/06/18 00:09:42;;;;;;;5.53;3.92;;;19.60;90.90;;;;;;4984604;28;20058;-73
2022/06/18 00:14:58;;;;;;;5.57;3.45;;;19.50;91.10;;;;;;4986192;28;20190;-74
2022/06/18 00:17:24;;;;;;;4.20;3.40;;;19.50;91.20;;;;;;4986575;28;20022;-74
2022/06/18 00:19:50;;;;;;;4.35;3.58;;;19.40;91.30;;;;;;4985137;28;20033;-75
2022/06/18 00:22:18;;;;;;;4.05;3.53;;;19.40;91.40;;;;;;4983756;28;20030;-74
2022/06/18 00:24:44;;;;;;;5.95;3.83;;;19.40;91.60;;;;;;4986604;28;20128;-74
2022/06/18 00:27:11;;;;;;;5.53;3.60;;;19.30;91.60;;;;;;4987364;28;20511;-73
2022/06/18 00:29:37;;;;;;;5.63;3.47;;;19.30;91.70;;;;;;4982597;28;20034;-74
2022/06/18 00:32:03;;;;;;;4.47;3.80;;;19.30;91.90;;;;;;4984150;28;20519;-74
2022/06/18 00:34:28;;;;;;;4.50;3.67;;;19.40;92.00;;;;;;4983082;28;20030;-74
2022/06/18 00:36:54;;;;;;;5.10;3.75;;;19.30;92.10;;;;;;4989767;28;20491;-74
2022/06/18 00:39:21;;;;;;;4.65;3.60;;;19.30;92.10;;;;;;4985001;28;20037;-74
2022/06/18 00:41:51;;;;;;;7.60;4.07;;;19.30;92.40;;;;;;4985886;28;20058;-74
2022/06/18 00:44:29;;;;;;;6.43;3.38;;;19.20;92.50;;;;;;4987945;28;20034;-74
2022/06/18 00:47:15;;;;;;;4.28;3.58;;;19.30;92.50;;;;;;4986086;28;20471;-75
2022/06/18 00:49:57;;;;;;;3.58;3.28;;;19.20;92.80;;;;;;4985693;28;20049;-73
2022/06/18 00:52:51;;;;;;;4.60;3.33;;;19.20;92.80;;;;;;4987185;28;20030;-73
2022/06/18 00:55:27;;;;;;;5.30;3.47;;;19.20;92.90;;;;;;4984919;28;20547;-73
2022/06/18 00:58:05;;;;;;;5.03;3.40;;;19.20;93.10;;;;;;4988426;28;20068;-74
2022/06/18 01:00:38;;;;;;;4.22;3.47;;;19.20;93.10;;;;;;4988493;28;20494;-74
2022/06/18 01:03:05;;;;;;;3.92;3.40;;;19.20;93.30;;;;;;4964024;28;20442;-75
2022/06/18 01:05:38;;;;;;;7.68;3.90;;;19.10;93.30;;;;;;4985160;28;20084;-73
2022/06/18 01:08:19;;;;;;;6.68;3.60;;;19.10;93.30;;;;;;4986250;28;20030;-74
2022/06/18 01:11:05;;;;;;;;;;;19.10;93.50;;;;;;4986596;28;20026;-73
2022/06/18 01:13:39;;;;;;;4.55;3.33;;;19.00;93.60;;;;;;4983008;28;19921;-73
2022/06/18 01:16:07;;;;;;;4.22;3.55;;;19.00;93.80;;;;;;4979963;28;20042;-74
2022/06/18 01:18:33;;;;;;;4.60;3.60;;;19.00;93.90;;;;;;4980666;28;20038;-74
2022/06/18 01:21:33;;;;;;;5.82;3.88;;;19.00;94.00;;;;;;4982609;28;20128;-74
2022/06/18 01:24:19;;;;;;;4.22;3.38;;;19.00;94.10;;;;;;4986014;28;20030;-73
2022/06/18 01:26:48;;;;;;;5.20;3.40;;;19.00;94.30;;;;;;4974336;28;20034;-74
2022/06/18 01:29:14;;;;;;;4.15;3.33;;;19.00;94.50;;;;;;4988044;28;20117;-74
2022/06/18 01:31:41;;;;;;;4.85;3.42;;;18.90;94.40;;;;;;4983373;28;20030;-73
2022/06/18 01:34:08;;;;;;;5.55;3.78;;;18.90;94.80;;;;;;4985476;28;20088;-73
2022/06/18 01:36:36;;;;;;;4.57;3.40;;;18.90;94.90;;;;;;4979744;28;20380;-74
2022/06/18 01:39:06;;;;;;;5.68;3.28;;;18.90;94.90;;;;;;4987016;28;20049;-74
2022/06/18 01:41:50;;;;;;;5.45;3.90;;;18.80;94.90;;;;;;4983290;28;20084;-75
2022/06/18 01:44:23;;;;;;;4.18;3.40;;;18.80;95.20;;;;;;4987073;28;20032;-74
2022/06/18 01:46:52;;;;;;;3.85;3.45;;;18.80;95.30;;;;;;4984917;28;20030;-75
2022/06/18 01:49:34;;;;;;;6.63;4.20;;;18.80;95.50;;;;;;4980237;28;20030;-74
2022/06/18 01:52:02;;;;;;;4.22;3.20;;;18.80;95.50;;;;;;4982946;28;20473;-75
2022/06/18 01:54:37;;;;;;;6.75;3.70;;;18.80;95.80;;;;;;4984780;28;20479;-74
2022/06/18 01:57:09;;;;;;;6.28;4.00;;;18.80;95.80;;;;;;4980387;28;20040;-74
2022/06/18 01:59:44;;;;;;;5.75;3.83;;;18.80;96.00;;;;;;4978555;28;20030;-73
2022/06/18 02:02:10;;;;;;;5.78;3.95;;;18.80;96.20;;;;;;4983346;28;20137;-74
2022/06/18 02:04:37;;;;;;;5.72;4.05;;;18.80;96.30;;;;;;4983244;28;20109;-74
2022/06/18 02:07:06;;;;;;;4.50;3.67;;;18.80;96.30;;;;;;4981243;28;20104;-73
2022/06/18 02:09:58;;;;;;;5.50;3.90;;;18.70;96.40;;;;;;4981899;28;20030;-73
2022/06/18 02:12:31;;;;;;;4.55;3.92;;;18.70;96.50;;;;;;4985988;28;20027;-74
2022/06/18 02:15:01;;;;;;;5.13;3.50;;;18.70;96.60;;;;;;4984761;28;20041;-74
2022/06/18 02:17:28;;;;;;;5.00;3.80;;;18.70;96.80;;;;;;4983656;28;20026;-74
2022/06/18 02:19:59;;;;;;;5.93;3.50;;;18.60;97.00;;;;;;4984316;28;20056;-74
2022/06/18 02:22:33;;;;;;;6.72;3.80;;;18.60;97.10;;;;;;4981841;28;20100;-73
2022/06/18 02:24:59;;;;;;;4.18;3.58;;;18.60;97.10;;;;;;4982298;28;20545;-73
2022/06/18 02:27:26;;;;;;;5.47;4.10;;;18.60;97.10;;;;;;4976015;28;20030;-73
2022/06/18 02:29:54;;;;;;;4.32;3.53;;;18.50;97.30;;;;;;4983961;28;20518;-74
2022/06/18 02:32:26;;;;;;;5.53;3.47;;;18.60;97.40;;;;;;4984626;28;20088;-75
2022/06/18 02:34:52;;;;;;;5.65;3.90;;;18.60;97.60;;;;;;4983111;28;20045;-74
2022/06/18 02:37:27;;;;;;;4.20;3.58;;;18.60;97.70;;;;;;4981738;28;20026;-74
2022/06/18 02:40:00;;;;;;;4.15;3.22;;;18.60;97.70;;;;;;4984481;28;20375;-74
2022/06/18 02:42:30;;;;;;;4.30;3.63;;;18.50;97.90;;;;;;4982924;28;20022;-74
2022/06/18 02:44:56;;;;;;;4.68;3.67;;;18.60;97.90;;;;;;4985856;28;20046;-74
2022/06/18 02:47:22;;;;;;;6.20;3.80;;;18.50;97.90;;;;;;4977879;28;20030;-75
2022/06/18 02:50:00;;;;;;;6.72;3.60;;;18.50;97.90;;;;;;4966338;28;20042;-75
2022/06/18 02:52:32;;;;;;;7.28;3.90;;;18.40;98.00;;;;;;4981512;28;20125;-75
2022/06/18 02:55:29;;;;;;;4.43;3.63;;;18.40;98.10;;;;;;4982278;28;20084;-75
2022/06/18 02:58:17;;;;;;;4.88;4.03;;;18.50;98.20;;;;;;4986885;28;20042;-75
2022/06/18 03:00:47;;;;;;;5.22;3.83;;;18.40;98.30;;;;;;4984336;28;20037;-74
2022/06/18 03:03:15;;;;;;;4.63;4.00;;;18.40;98.40;;;;;;4984081;28;20030;-74
2022/06/18 03:05:42;;;;;;;4.63;3.72;;;18.40;98.50;;;;;;4975619;28;20022;-74
2022/06/18 03:08:08;;;;;;;5.13;3.72;;;18.40;98.50;;;;;;4984934;28;20030;-75
2022/06/18 03:13:18;;;;;;;7.15;4.03;;;18.40;98.70;;;;;;4990456;28;20039;-74
2022/06/18 03:15:46;;;;;;;5.03;3.83;;;18.40;98.80;;;;;;4980318;28;20577;-74
2022/06/18 03:18:12;;;;;;;5.85;4.20;;;18.40;99.00;;;;;;4981072;28;20406;-74
2022/06/18 03:21:15;;;;;;;5.28;4.78;;;18.40;99.00;;;;;;4983349;28;20457;-74
2022/06/18 03:23:41;;;;;;;6.10;4.53;;;18.40;99.10;;;;;;4987243;28;20019;-75
2022/06/18 03:26:07;;;;;;;5.68;4.28;;;18.40;99.30;;;;;;4980903;28;20050;-75
2022/06/18 03:28:33;;;;;;;6.28;4.30;;;18.40;99.40;;;;;;4988062;28;20566;-74
2022/06/18 03:30:58;;;;;;;5.90;4.35;;;18.40;99.50;;;;;;4984544;28;20113;-74
2022/06/18 03:33:24;;;;;;;6.57;4.03;;;18.40;99.60;;;;;;4987098;28;20112;-75
2022/06/18 03:35:51;;;;;;;6.05;4.03;;;18.40;99.60;;;;;;4981804;28;20035;-74
2022/06/18 03:38:17;;;;;;;5.88;3.90;;;18.40;99.80;;;;;;4987728;28;20113;-74
2022/06/18 03:40:44;;;;;;;6.53;4.03;;;18.40;99.90;;;;;;4981361;28;20821;-74
2022/06/18 03:43:11;;;;;;;5.47;4.28;;;18.40;99.90;;;;;;4989968;28;20026;-75
2022/06/18 03:45:43;;;;;;;5.75;3.80;;;18.40;99.90;;;;;;4980486;28;21382;-75
2022/06/18 03:48:34;;;;;;;6.68;4.35;;;18.40;99.90;;;;;;4985377;28;20403;-75
2022/06/18 03:51:01;;;;;;;7.80;4.82;;;18.40;99.90;;;;;;4982787;28;20046;-74
2022/06/18 03:53:27;;;;;;;6.10;4.07;;;18.50;99.90;;;;;;4986189;28;20035;-74
2022/06/18 03:55:53;;;;;;;5.18;4.10;;;18.50;99.90;;;;;;4978399;28;20030;-74
2022/06/18 03:58:19;;;;;;;4.30;3.85;;;18.40;99.90;;;;;;4987093;28;20045;-74
2022/06/18 04:00:45;;;;;;;5.18;4.38;;;18.50;99.90;;;;;;4982093;28;20105;-74
2022/06/18 04:03:10;;;;;;;4.93;3.60;;;18.50;99.90;;;;;;4984664;28;20030;-73
2022/06/18 04:05:39;;;;;;;5.13;4.15;;;18.60;99.90;;;;;;4976429;28;20685;-74
2022/06/18 04:08:05;;;;;;;5.57;3.33;;;18.60;99.90;;;;;;4985897;28;20496;-74
2022/06/18 04:10:31;;;;;;;4.88;3.40;;;18.60;99.90;;;;;;4964636;28;20133;-73
2022/06/18 04:12:57;;;;;;;5.65;3.40;;;18.60;99.90;;;;;;4985519;28;20038;-73
2022/06/18 04:15:22;;;;;;;3.80;3.13;;;18.70;99.80;;;;;;4983067;28;20495;-73
2022/06/18 04:17:48;;;;;;;4.93;3.30;;;18.80;99.60;;;;;;4987364;28;20053;-74
2022/06/18 04:20:22;;;;;;;4.60;2.72;;;18.80;99.50;;;;;;4992848;28;20050;-73
2022/06/18 04:22:47;;;;;;;6.00;2.75;;;18.80;99.40;;;;;;4991807;28;20451;-74
2022/06/18 04:25:13;;;;;;;6.60;3.03;;;18.90;99.30;;;;;;4971928;28;20066;-74
2022/06/18 04:27:39;;;;;;;6.47;2.92;;;18.90;98.70;;;;;;4988347;28;20088;-75
2022/06/18 04:30:06;;;;;;;6.00;2.67;;;19.00;98.70;;;;;;4980549;28;20077;-74
2022/06/18 04:32:32;;;;;;;2.70;2.33;;;19.00;98.80;;;;;;4989614;28;20103;-74
2022/06/18 04:34:57;;;;;;;3.47;2.60;;;19.10;98.80;;;;;;4984110;28;20466;-74
2022/06/18 04:37:23;;;;;;;5.00;2.90;;;19.10;98.80;;;;;;4989306;28;20022;-74
2022/06/18 04:39:49;;;;;;;4.97;3.28;;;19.20;98.70;;;;;;4982955;28;20041;-74
2022/06/18 04:42:15;;;;;;;3.50;2.65;;;19.20;98.50;;;;;;4988803;28;20089;-74
2022/06/18 04:44:40;;;;;;;4.05;2.50;;;19.30;98.50;;;;;;4989022;28;20092;-74
2022/06/18 04:47:07;;;;;;;4.80;2.83;;;19.30;98.50;;;;;;4985523;28;20030;-74
2022/06/18 04:49:33;;;;;;;3.40;2.60;;;19.40;98.60;;;;;;4988420;28;20039;-74
2022/06/18 04:51:59;;;;;;;4.40;3.00;;;19.40;98.30;;;;;;4983749;28;20037;-74
2022/06/18 04:54:25;;;;;;;3.53;2.60;;;19.50;98.60;;;;;;4984164;28;20491;-74
2022/06/18 04:56:50;;;;;;;3.90;2.60;;;19.50;98.30;;;;;;4987208;28;20022;-74
2022/06/18 04:59:16;;;;;;;3.10;2.63;;;19.60;98.30;;;;;;4990941;28;20475;-74
2022/06/18 05:01:42;;;;;;;5.32;2.50;;;19.60;98.20;;;;;;4983908;28;20030;-74
2022/06/18 05:04:09;;;;;;;2.65;2.40;;;19.60;98.20;;;;;;4982482;28;20060;-74
2022/06/18 05:06:35;;;;;;;3.92;2.55;;;19.60;98.10;;;;;;4984390;28;20402;-74
2022/06/18 05:09:01;;;;;;;3.13;2.38;;;19.70;98.20;;;;;;4986968;28;20034;-74
2022/06/18 05:11:27;;;;;;;3.30;2.53;;;19.80;98.20;;;;;;4979338;28;20057;-74
2022/06/18 05:13:53;;;;;;;3.58;2.38;;;19.80;98.20;;;;;;4986915;28;20111;-74
2022/06/18 05:16:18;;;;;;;2.60;2.30;;;19.80;98.20;;;;;;4982947;28;20097;-75
2022/06/18 05:18:46;;;;;;;4.82;2.72;;;19.90;98.20;;;;;;4979735;28;20042;-74
2022/06/18 05:21:12;;;;;;;5.45;2.85;;;19.90;98.20;;;;;;4982341;28;20065;-74
2022/06/18 05:23:38;;;;;;;5.38;3.13;;;19.90;98.30;;;;;;4976380;28;20507;-74
2022/06/18 05:26:05;;;;;;;4.63;2.95;;;20.00;98.10;;;;;;4980978;28;20037;-73
2022/06/18 05:28:31;;;;;;;7.75;3.58;;;20.00;98.00;;;;;;4990910;28;20027;-74
2022/06/18 05:30:57;;;;;;;5.05;3.20;;;20.10;98.00;;;;;;4986287;28;20514;-74
2022/06/18 05:33:24;;;;;;;4.38;2.80;;;20.10;97.80;;;;;;4987609;28;20032;-74
2022/06/18 05:35:49;;;;;;;6.15;2.70;;;20.10;97.80;;;;;;4979033;28;20026;-74
2022/06/18 05:38:18;;;;;;;2.92;2.40;;;20.20;97.90;;;;;;4987837;28;20685;-73
2022/06/18 05:40:44;;;;;;;3.38;2.85;;;20.20;98.00;;;;;;4985819;28;20030;-73
2022/06/18 05:43:10;;;;;;;5.50;2.95;;;20.30;97.90;;;;;;4982047;28;20030;-74
2022/06/18 05:45:37;;;;;;;4.35;2.65;;;20.40;97.60;;;;;;4988572;28;20068;-74
2022/06/18 05:48:02;;;;;;;4.43;2.67;;;20.40;97.60;;;;;;4981482;28;20035;-74
2022/06/18 05:50:29;;;;;;;4.55;2.70;;;20.50;97.80;;;;;;4982762;28;20038;-74
2022/06/18 05:52:55;;;;;;;2.90;2.60;;;20.50;97.80;;;;;;4989346;28;20087;-76
2022/06/18 05:55:22;;;;;;;4.47;3.10;;;20.50;97.70;;;;;;4982208;28;20625;-74
2022/06/18 05:57:51;;;;;;;3.67;3.20;;;20.60;97.60;;;;;;4980925;28;20039;-74
2022/06/18 06:00:19;;;;;;;3.40;2.67;;;20.70;97.50;;;;;;4986292;28;20129;-74
2022/06/18 06:02:45;;;;;;;5.35;3.03;;;20.70;97.20;;;;;;4976494;28;20040;-74
2022/06/18 06:05:11;;;;;;;4.78;3.42;;;20.80;97.50;;;;;;4980719;28;20442;-75
2022/06/18 06:07:37;;;;;;;3.90;2.63;;;20.80;97.50;;;;;;4964143;28;20031;-74
2022/06/18 06:13:00;;;;;;;4.15;3.22;;;20.90;97.40;;;;;;4982480;28;20049;-73
2022/06/18 06:15:26;;;;;;;6.00;3.28;;;21.00;97.30;;;;;;4986592;28;20031;-74
2022/06/18 06:17:52;;;;;;;7.60;3.47;;;21.10;97.10;;;;;;4979968;28;20034;-74
2022/06/18 06:20:27;;;;;;;4.18;2.97;;;21.10;97.00;;;;;;4983421;28;20062;-74
2022/06/18 06:22:54;;;;;;;3.53;2.67;;;21.20;96.80;;;;;;4978643;28;20039;-77
2022/06/18 06:25:20;;;;;;;5.75;3.20;;;21.20;96.90;;;;;;4998250;28;20041;-76
2022/06/18 06:27:46;;;;;;;6.45;3.80;;;21.20;97.00;;;;;;4981504;28;20038;-75
2022/06/18 06:30:13;;;;;;;5.47;3.67;;;21.20;97.10;;;;;;4966755;28;20035;-75
2022/06/18 06:32:39;;;;;;;5.72;3.35;;;21.30;97.00;;;;;;4975363;28;20035;-73
2022/06/18 06:35:06;;;;;;;4.60;3.60;;;21.30;96.90;;;;;;4981601;28;20034;-74
2022/06/18 06:37:31;;;;;;;5.53;3.25;;;21.40;96.80;;;;;;4976981;28;20113;-74
2022/06/18 06:39:57;;;;;;;6.13;3.97;;;21.40;96.80;;;;;;4982342;28;20145;-74
2022/06/18 06:42:23;;;;;;;4.80;3.60;;;21.50;96.80;;;;;;4980417;28;20032;-74
2022/06/18 06:44:48;;;;;;;4.43;3.60;;;21.50;96.70;;;;;;4985826;28;20109;-74
2022/06/18 06:47:14;;;;;;;6.15;4.00;;;21.60;96.80;;;;;;4979887;28;20046;-74
2022/06/18 06:49:41;;;;;;;10.13;4.53;;;21.70;96.60;;;;;;4979444;28;20050;-74
2022/06/18 06:52:09;;;;;;;7.55;3.58;;;21.80;96.50;;;;;;4981033;28;20041;-74
2022/06/18 06:54:35;;;;;;;7.38;4.07;;;21.80;96.40;;;;;;4981305;28;20042;-75
2022/06/18 06:57:21;;;;;;;5.18;3.42;;;21.90;96.40;;;;;;4978535;28;20371;-75
2022/06/18 06:59:47;;;;;;;8.77;4.60;;;21.90;96.40;;;;;;4967539;28;20038;-74
2022/06/18 07:02:17;;;;;;;7.10;4.57;;;21.90;96.20;;;;;;4982249;28;20451;-72
2022/06/18 07:04:43;;;;;;;6.05;4.28;;;22.00;96.10;;;;;;4977220;28;20030;-72
2022/06/18 07:07:13;;;;;;;6.25;4.28;;;22.10;96.10;;;;;;4980646;28;20082;-72
2022/06/18 07:09:39;;;;;;;8.15;4.50;;;22.10;96.00;;;;;;4979566;28;20065;-74
2022/06/18 07:12:06;;;;;;;6.93;4.22;;;22.10;96.00;;;;;;4972547;28;20034;-74
2022/06/18 07:14:32;;;;;;;8.07;5.32;;;22.20;96.10;;;;;;4967228;28;20034;-74
2022/06/18 07:16:58;;;;;;;7.13;5.07;;;22.20;95.80;;;;;;4980556;28;20053;-75
2022/06/18 07:19:25;;;;;;;7.70;4.85;;;22.20;95.90;;;;;;4979169;28;20014;-74
2022/06/18 07:21:51;;;;;;;6.90;4.10;;;22.20;95.90;;;;;;4983891;28;20054;-74
2022/06/18 07:24:17;;;;;;;6.47;3.90;;;22.30;96.00;;;;;;4981841;28;20537;-75
2022/06/18 07:26:43;;;;;;;6.50;4.60;;;22.40;95.90;;;;;;4979298;28;20388;-74
2022/06/18 07:29:09;;;;;;;5.90;3.92;;;22.40;96.10;;;;;;4981645;28;20034;-74
2022/06/18 07:31:35;;;;;;;6.35;4.40;;;22.50;96.00;;;;;;4977268;28;20035;-74
2022/06/18 07:34:05;;;;;;;6.13;4.70;;;22.50;96.00;;;;;;4955134;28;20034;-73
2022/06/18 07:36:32;;;;;;;5.57;4.13;;;22.60;96.00;;;;;;4964955;28;20026;-74
2022/06/18 07:39:04;;;;;;;10.30;5.55;;;22.70;95.60;;;;;;4985973;28;20027;-74
2022/06/18 07:41:39;;;;;;;6.95;5.20;;;22.80;95.70;;;;;;4976307;28;20034;-75
2022/06/18 07:44:05;;;;;;;10.43;5.45;;;22.80;95.50;;;;;;4973937;28;20035;-77
2022/06/18 07:46:32;;;;;;;6.68;4.50;;;22.80;95.40;;;;;;4971109;28;20509;-74
2022/06/18 07:48:58;;;;;;;12.27;4.97;;;22.80;95.30;;;;;;4974443;28;20043;-74
2022/06/18 07:51:26;;;;;;;9.30;5.07;;;22.90;95.40;;;;;;4968876;28;20030;-73
2022/06/18 07:53:53;;;;;;;7.25;4.97;;;22.90;95.20;;;;;;4976536;28;20512;-75
2022/06/18 07:56:18;;;;;;;7.53;4.90;;;23.00;95.30;;;;;;4976260;28;20534;-75
2022/06/18 07:58:44;;;;;;;5.72;4.28;;;23.00;95.30;;;;;;4974282;28;20086;-74
2022/06/18 08:01:10;;;;;;;4.78;4.22;;;23.00;95.20;;;;;;4983260;28;20031;-76
2022/06/18 08:03:38;;;;;;;7.88;4.10;;;23.10;95.20;;;;;;4959971;28;20028;-76
2022/06/18 08:06:05;;;;;;;5.55;3.90;;;23.20;95.30;;;;;;4981868;28;20052;-75
2022/06/18 08:08:30;;;;;;;11.68;5.65;;;23.20;95.10;;;;;;4986061;28;20042;-75
2022/06/18 08:10:56;;;;;;;6.45;4.28;;;23.30;95.10;;;;;;4977106;28;20038;-73
2022/06/18 08:13:22;;;;;;;8.45;5.35;;;23.30;95.10;;;;;;4985840;28;20946;-75
2022/06/18 08:15:48;;;;;;;8.38;4.55;;;23.40;94.90;;;;;;4980656;28;20039;-75
2022/06/18 08:18:14;;;;;;;7.90;4.50;;;23.40;94.80;;;;;;4976146;28;22101;-74
2022/06/18 08:20:42;;;;;;;7.53;4.50;;;23.40;94.80;;;;;;4991179;28;20434;-74
2022/06/18 08:23:11;;;;;;;11.10;5.50;;;23.50;94.90;;;;;;4980127;28;20106;-74
2022/06/18 08:25:40;;;;;;;12.73;6.93;;;23.60;94.80;;;;;;4962052;28;20030;-75
2022/06/18 08:28:08;;;;;;;6.72;4.88;;;23.50;94.60;;;;;;4980922;28;20185;-75
2022/06/18 08:30:35;;;;;;;7.25;5.00;;;23.60;94.80;;;;;;4983042;28;20074;-74
2022/06/18 08:33:00;;;;;;;9.43;6.30;;;23.60;94.70;;;;;;4983860;28;20475;-74
2022/06/18 08:35:27;;;;;;;7.40;4.70;;;23.70;94.60;;;;;;4982575;28;20033;-74
2022/06/18 08:37:53;;;;;;;10.40;4.65;;;23.70;94.60;;;;;;4987183;28;20139;-75
2022/06/18 08:40:52;;;;;;;11.02;5.25;;;23.80;95.00;;;;;;4982779;28;20026;-74
2022/06/18 08:43:36;;;;;;;7.32;5.00;;;23.80;94.70;;;;;;4984833;28;20022;-74
2022/06/18 08:46:25;;;;;;;8.32;5.35;;;23.80;94.80;;;;;;4985894;28;20636;-75
2022/06/18 08:48:56;;;;;;;7.82;4.75;;;23.90;94.70;;;;;;4964617;28;20097;-75
2022/06/18 08:51:49;;;;;;;6.72;4.90;;;23.90;94.80;;;;;;4986338;28;20046;-75
2022/06/18 08:54:26;;;;;;;6.65;4.93;;;24.00;94.90;;;;;;4991308;28;20030;-74
2022/06/18 08:57:12;;;;;;;7.22;4.75;;;24.10;95.00;;;;;;4989652;28;20498;-76
2022/06/18 09:00:13;;;;;;;10.40;6.10;;;24.10;94.90;;;;;;4986441;28;20036;-76
2022/06/18 09:02:48;;;;;;;8.35;4.95;;;24.40;94.00;;;;;;4985715;28;20034;-75
2022/06/18 09:05:25;;;;;;;9.18;5.22;;;24.30;94.20;;;;;;4978652;28;20030;-76
2022/06/18 09:08:10;;;;;;;13.43;6.75;;;24.40;94.10;;;;;;4982535;28;20023;-75
2022/06/18 09:10:58;;;;;;;10.48;5.53;;;24.40;94.00;;;;;;4974945;28;20679;-74
2022/06/18 09:13:34;;;;;;;10.73;5.15;;;24.50;93.90;;;;;;4983729;28;20038;-74
2022/06/18 09:16:05;;;;;;;10.88;4.90;;;24.40;93.90;;;;;;4973553;28;20053;-74
2022/06/18 09:18:45;;;;;;;9.70;5.30;;;24.40;94.20;;;;;;4973785;28;20494;-73
2022/06/18 09:21:21;;;;;;;6.93;4.53;;;24.50;94.00;;;;;;4980751;28;20022;-74
2022/06/18 09:23:55;;;;;;;12.07;5.68;;;24.50;94.20;;;;;;4980530;28;20517;-76
2022/06/18 09:26:35;;;;;;;7.85;5.75;;;24.50;94.20;;;;;;4983301;28;20026;-73
2022/06/18 09:29:13;;;;;;;10.73;6.13;;;24.60;94.30;;;;;;4983373;28;20035;-73
2022/06/18 09:31:42;;;;;;;10.68;6.80;;;24.60;94.50;;;;;;4986700;28;20038;-75
2022/06/18 09:34:11;;;;;;;9.10;5.40;;;24.60;94.70;;;;;;4983298;28;20034;-75
2022/06/18 09:36:43;;;;;;;9.43;4.93;;;24.70;94.70;;;;;;4981728;28;20381;-75
2022/06/18 09:39:19;;;;;;;9.40;5.10;;;24.70;94.60;;;;;;4986265;28;20049;-75
2022/06/18 09:42:05;;;;;;;9.43;5.72;;;24.70;94.40;;;;;;4978412;28;20105;-74
2022/06/18 09:44:30;;;;;;;12.85;6.28;;;24.70;94.50;;;;;;4962995;28;20414;-75
2022/06/18 09:47:07;;;;;;;8.10;5.07;;;24.80;94.50;;;;;;4980317;28;20027;-74
2022/06/18 09:49:33;;;;;;;11.05;6.45;;;24.80;94.50;;;;;;4980500;28;20042;-75
2022/06/18 09:52:04;;;;;;;8.98;5.15;;;25.00;93.70;;;;;;4980827;28;20034;-75
2022/06/18 09:54:47;;;;;;;10.48;5.80;;;25.00;93.40;;;;;;4984232;28;20022;-75
2022/06/18 09:57:17;;;;;;;10.48;5.05;;;24.90;92.90;;;;;;4980814;28;20379;-74
2022/06/18 09:59:48;;;;;;;17.55;5.05;;;24.90;93.20;;;;;;4980018;28;20053;-75
2022/06/18 10:02:21;;;;;;;9.70;4.53;;;24.90;93.20;;;;;;4978418;28;20041;-74
2022/06/18 10:07:39;;;;;;;13.18;4.50;;;24.80;93.60;;;;;;4978669;28;20066;-73
2022/06/18 10:10:15;;;;;;;8.02;4.43;;;24.80;93.00;;;;;;4964557;28;20071;-74
2022/06/18 10:12:46;;;;;;;8.68;4.20;;;24.80;92.90;;;;;;4983358;28;20065;-73
2022/06/18 10:15:13;;;;;;;;;;;24.80;93.00;;;;;;4983653;28;20085;-74
2022/06/18 10:17:57;;;;;;;7.95;3.67;;;24.80;93.10;;;;;;4981308;28;19952;-73
2022/06/18 10:20:46;;;;;;;8.70;3.53;;;24.90;92.30;;;;;;4976526;28;20054;-74
2022/06/18 10:23:39;;;;;;;5.75;3.70;;;24.90;91.90;;;;;;4980032;28;20102;-74
2022/06/18 10:26:11;;;;;;;5.95;3.50;;;24.90;91.60;;;;;;4979182;28;20034;-74
2022/06/18 10:29:15;;;;;;;8.57;3.35;;;25.00;91.40;;;;;;4979207;28;20042;-75
2022/06/18 10:32:08;;;;;;;4.97;3.33;;;25.00;91.20;;;;;;4975873;28;21189;-75
2022/06/18 10:34:37;;;;;;;6.68;3.30;;;25.00;91.20;;;;;;4966692;28;20050;-76
2022/06/18 10:37:37;;;;;;;7.93;3.10;;;25.00;91.30;;;;;;4974449;28;20469;-76
2022/06/18 10:40:42;;;;;;;6.47;2.90;;;25.00;91.40;;;;;;4958713;28;20038;-77
2022/06/18 10:43:18;;;;;;;5.72;3.05;;;25.00;91.60;;;;;;4978070;28;20060;-75
2022/06/18 10:45:52;;;;;;;10.25;3.42;;;24.90;91.80;;;;;;4985186;28;20050;-75
2022/06/18 10:48:23;;;;;;;6.90;3.03;;;25.10;91.70;;;;;;4979158;28;20054;-76
2022/06/18 10:50:52;;;;;;;4.65;2.25;;;25.10;92.00;;;;;;4985677;28;20513;-76
2022/06/18 10:53:21;;;;;;;5.18;2.30;;;25.10;91.90;;;;;;4983225;28;20033;-75
2022/06/18 10:56:05;;;;;;;8.77;2.53;;;25.20;91.40;;;;;;4971193;28;20097;-76
2022/06/18 10:58:31;;;;;;;7.03;2.50;;;25.20;91.40;;;;;;4973234;28;20216;-76
2022/06/18 11:01:03;;;;;;;9.25;4.90;;;25.20;91.10;;;;;;4984683;28;20022;-74
2022/06/18 11:03:31;;;;;;;27.30;12.18;;;25.30;91.00;;;;;;4978119;28;20101;-76
2022/06/18 11:05:58;;;;;;;33.25;13.55;;;25.40;91.10;;;;;;4984724;28;20038;-77
2022/06/18 11:08:31;;;;;;;26.15;11.23;;;25.50;91.30;;;;;;4972805;28;20593;-75
2022/06/18 11:11:13;;;;;;;6.65;3.30;;;25.60;91.10;;;;;;4978638;28;20034;-75
2022/06/18 11:13:41;;;;;;;8.05;3.20;;;25.60;90.70;;;;;;4984488;28;20040;-74
2022/06/18 11:16:15;;;;;;;5.88;3.40;;;25.70;90.70;;;;;;4983129;28;20046;-75
2022/06/18 11:18:45;;;;;;;5.15;2.60;;;25.90;90.50;;;;;;4984659;28;20033;-74
2022/06/18 11:21:35;;;;;;;7.60;2.57;;;26.20;90.50;;;;;;4987834;28;20037;-76
2022/06/18 11:24:30;;;;;;;6.90;2.50;;;26.60;89.20;;;;;;4964520;28;20517;-75
2022/06/18 11:27:01;;;;;;;5.57;2.10;;;27.60;87.80;;;;;;4973146;28;20613;-78
2022/06/18 11:29:40;;;;;;;6.32;2.05;;;29.00;82.60;;;;;;4978779;28;20034;-75
2022/06/18 11:32:17;;;;;;;6.70;2.20;;;30.30;76.40;;;;;;4986247;28;20034;-75
2022/06/18 11:34:45;;;;;;;3.72;1.80;;;31.60;73.10;;;;;;4986239;28;20545;-75
2022/06/18 11:37:25;;;;;;;5.28;1.70;;;32.80;71.10;;;;;;4982767;28;20031;-76
2022/06/18 11:40:16;;;;;;;8.13;2.00;;;34.10;64.00;;;;;;4991401;28;20053;-77
2022/06/18 11:42:53;;;;;;;3.92;1.58;;;35.20;62.40;;;;;;4991443;28;20030;-80
2022/06/18 11:45:49;;;;;;;4.20;1.25;;;35.90;57.10;;;;;;4987282;28;20034;-81
2022/06/18 11:48:40;;;;;;;4.57;1.77;;;36.60;55.90;;;;;;4979813;28;20034;-77
2022/06/18 11:51:36;;;;;;;4.88;1.80;;;37.40;53.40;;;;;;4988061;28;20050;-75
2022/06/18 11:54:12;;;;;;;3.70;1.40;;;37.60;51.10;;;;;;4981860;28;20046;-75
2022/06/18 11:56:52;;;;;;;3.17;1.40;;;37.60;50.80;;;;;;4972085;28;20402;-74
2022/06/18 11:59:53;;;;;;;3.08;1.85;;;37.40;51.20;;;;;;4984668;28;20065;-73
2022/06/18 12:02:31;;;;;;;68.50;59.67;;;36.40;50.40;;;;;;4966118;28;20051;-76
2022/06/18 12:05:34;;;;;;;14.63;10.20;;;34.90;53.00;;;;;;4947369;28;20286;-75
2022/06/18 12:08:02;;;;;;;8.75;7.05;;;33.00;54.90;;;;;;4943725;28;20043;-75
2022/06/18 12:10:48;;;;;;;3.80;1.50;;;31.60;58.70;;;;;;4966418;28;20737;-76
2022/06/18 12:13:35;;;;;;;3.60;1.45;;;30.70;59.80;;;;;;4957122;28;20050;-80
2022/06/18 12:16:24;;;;;;;5.40;1.40;;;29.90;61.10;;;;;;4968817;28;20093;-75
2022/06/18 12:19:23;;;;;;;2.38;1.25;;;29.20;62.80;;;;;;4963695;28;20130;-75
2022/06/18 12:21:52;;;;;;;3.42;1.00;;;28.60;64.70;;;;;;4966768;28;20038;-85
2022/06/18 12:24:37;;;;;;;3.22;1.35;;;28.30;65.30;;;;;;4944409;28;20062;-75
2022/06/18 12:27:13;;;;;;;4.05;1.40;;;28.00;66.50;;;;;;4962549;28;20058;-73
2022/06/18 12:30:14;;;;;;;4.47;1.00;;;27.90;68.00;;;;;;4957579;28;20027;-76
2022/06/18 12:32:46;;;;;;;3.40;1.75;;;27.70;67.50;;;;;;4961567;28;20411;-78
2022/06/18 12:35:18;;;;;;;1.55;1.00;;;27.60;67.80;;;;;;4960875;28;20110;-76
2022/06/18 12:37:49;;;;;;;2.40;1.10;;;27.60;67.10;;;;;;4951987;28;20046;-77
2022/06/18 12:40:24;;;;;;;;;;;27.50;65.60;;;;;;4970912;28;20026;-72
2022/06/18 12:42:56;;;;;;;2.03;1.00;;;27.30;66.50;;;;;;4966653;28;19922;-74
2022/06/18 12:45:33;;;;;;;2.13;0.80;;;27.30;67.90;;;;;;4983868;28;20034;-77
2022/06/18 12:48:22;;;;;;;3.60;1.10;;;27.30;66.80;;;;;;4981439;28;20023;-74
2022/06/18 12:51:06;;;;;;;1.42;1.00;;;27.30;67.30;;;;;;4983939;28;21013;-73
2022/06/18 12:54:06;;;;;;;2.00;0.95;;;27.30;66.90;;;;;;4979130;28;20398;-74
2022/06/18 12:56:35;;;;;;;3.08;1.10;;;27.40;67.60;;;;;;4971868;28;20153;-73
2022/06/18 12:59:12;;;;;;;1.75;0.90;;;27.50;67.70;;;;;;4976081;28;20108;-76
2022/06/18 13:01:51;;;;;;;3.50;0.85;;;27.60;67.10;;;;;;4953749;28;20513;-78
2022/06/18 13:04:31;;;;;;;1.30;0.77;;;27.80;68.20;;;;;;4975528;28;20043;-74
2022/06/18 13:07:01;;;;;;;2.45;1.30;;;28.10;67.60;;;;;;4988413;28;20372;-74
2022/06/18 13:09:58;;;;;;;2.20;1.25;;;28.40;66.60;;;;;;4976734;28;20030;-74
2022/06/18 13:12:44;;;;;;;2.30;0.95;;;28.70;65.50;;;;;;4985549;28;20526;-74
2022/06/18 13:15:28;;;;;;;2.55;1.30;;;29.20;63.40;;;;;;4960147;28;20490;-75
2022/06/18 13:18:18;;;;;;;2.45;1.10;;;29.90;62.60;;;;;;4950222;28;20172;-76
2022/06/18 13:20:48;;;;;;;2.80;0.93;;;31.10;61.10;;;;;;4974728;28;20102;-75
2022/06/18 13:29:07;;;;;;;1.98;0.95;;;33.90;56.10;;;;;;4980806;28;19974;-74
2022/06/18 13:31:38;;;;;;;2.35;0.93;;;34.90;53.90;;;;;;4971364;28;20030;-78
2022/06/18 13:34:15;;;;;;;;;;;35.40;53.60;;;;;;4984051;28;20030;-77